createdAt,value
2018-07-10T00:03:12.964Z,21.94
2018-07-10T00:06:46.139Z,21.94
2018-07-10T00:11:07.823Z,21.98
2018-07-10T00:14:09.936Z,22.01
2018-07-10T00:17:12.120Z,21.97
2018-07-10T00:20:14.309Z,21.88
2018-07-10T00:23:16.300Z,21.75
2018-07-10T00:26:18.435Z,21.71
2018-07-10T00:29:20.522Z,21.77
2018-07-10T00:32:22.647Z,21.79
2018-07-10T00:35:25.134Z,21.78
2018-07-10T00:38:38.856Z,21.79
2018-07-10T00:41:41.561Z,21.78
2018-07-10T00:44:43.562Z,21.77
2018-07-10T00:47:45.714Z,21.73
2018-07-10T00:50:47.828Z,21.74
2018-07-10T00:53:50.078Z,21.66
2018-07-10T00:56:52.167Z,21.65
2018-07-10T00:59:54.256Z,21.69
2018-07-10T01:02:56.950Z,21.69
2018-07-10T01:05:58.984Z,21.71
2018-07-10T01:09:01.162Z,21.68
2018-07-10T01:12:03.193Z,21.61
2018-07-10T01:15:05.427Z,21.55
2018-07-10T01:18:07.651Z,21.46
2018-07-10T01:21:19.835Z,21.49
2018-07-10T01:24:21.975Z,21.40
2018-07-10T01:27:23.955Z,21.44
2018-07-10T01:30:26.015Z,21.51
2018-07-10T01:33:29.192Z,21.52
2018-07-10T01:36:31.174Z,21.46
2018-07-10T01:39:33.258Z,21.40
2018-07-10T01:42:35.432Z,21.49
2018-07-10T01:45:37.552Z,21.51
2018-07-10T01:48:39.629Z,21.33
2018-07-10T01:51:41.726Z,21.20
2018-07-10T01:54:43.759Z,21.17
2018-07-10T01:57:46.172Z,21.23
2018-07-10T02:00:48.429Z,21.33
2018-07-10T02:03:50.468Z,21.28
2018-07-10T02:06:52.462Z,21.10
2018-07-10T02:09:54.636Z,21.08
2018-07-10T02:12:56.719Z,20.94
2018-07-10T02:15:58.888Z,20.96
2018-07-10T02:19:01.043Z,20.96
2018-07-10T02:22:04.394Z,20.98
2018-07-10T02:25:06.503Z,20.91
2018-07-10T02:28:09.740Z,20.90
2018-07-10T02:31:11.843Z,20.57
2018-07-10T02:34:13.980Z,20.62
2018-07-10T02:37:15.999Z,20.65
2018-07-10T02:40:18.063Z,20.62
2018-07-10T02:43:20.214Z,20.59
2018-07-10T02:46:22.339Z,20.63
2018-07-10T02:49:24.503Z,20.73
2018-07-10T02:52:39.612Z,20.78
2018-07-10T02:55:42.921Z,20.77
2018-07-10T02:58:45.373Z,20.79
2018-07-10T03:01:47.559Z,20.83
2018-07-10T03:04:56.440Z,20.81
2018-07-10T03:08:00.049Z,20.73
2018-07-10T03:11:02.147Z,20.75
2018-07-10T03:14:06.681Z,20.73
2018-07-10T03:17:08.703Z,20.64
2018-07-10T03:20:10.926Z,20.60
2018-07-10T03:23:13.120Z,20.64
2018-07-10T03:26:15.239Z,20.71
2018-07-10T03:29:17.400Z,20.72
2018-07-10T03:32:19.816Z,20.76
2018-07-10T03:35:21.851Z,20.85
2018-07-10T03:38:23.812Z,20.82
2018-07-10T03:41:26.947Z,20.71
2018-07-10T03:44:29.529Z,20.60
2018-07-10T03:47:31.916Z,20.60
2018-07-10T03:50:34.288Z,20.60
2018-07-10T03:53:36.458Z,20.48
2018-07-10T03:56:38.662Z,20.48
2018-07-10T03:59:45.687Z,20.53
2018-07-10T04:02:49.838Z,20.52
2018-07-10T04:05:51.956Z,20.59
2018-07-10T04:08:54.303Z,20.58
2018-07-10T04:11:56.435Z,20.48
2018-07-10T04:14:59.523Z,20.56
2018-07-10T04:18:06.153Z,20.55
2018-07-10T04:21:18.908Z,20.50
2018-07-10T04:24:21.498Z,20.44
2018-07-10T04:27:30.132Z,20.46
2018-07-10T04:30:40.744Z,20.51
2018-07-10T04:33:44.611Z,20.48
2018-07-10T04:36:47.257Z,20.50
2018-07-10T04:39:49.336Z,20.56
2018-07-10T04:42:55.306Z,20.47
2018-07-10T04:45:58.537Z,20.48
2018-07-10T04:49:05.341Z,20.45
2018-07-10T04:52:17.649Z,20.48
2018-07-10T04:55:19.942Z,20.56
2018-07-10T04:58:22.020Z,20.61
2018-07-10T05:01:32.519Z,20.61
2018-07-10T05:04:34.784Z,20.68
2018-07-10T05:07:37.250Z,20.64
2018-07-10T05:10:39.492Z,20.68
2018-07-10T05:13:43.177Z,20.67
2018-07-10T05:16:45.501Z,20.63
2018-07-10T05:19:47.995Z,20.54
2018-07-10T05:22:50.141Z,20.59
2018-07-10T05:25:54.271Z,20.65
2018-07-10T05:28:56.529Z,20.68
2018-07-10T05:31:58.442Z,20.69
2018-07-10T05:35:01.947Z,20.68
2018-07-10T05:38:04.772Z,20.70
2018-07-10T05:41:07.631Z,20.84
2018-07-10T05:44:09.789Z,20.64
2018-07-10T05:47:12.964Z,20.70
2018-07-10T05:50:16.793Z,20.68
2018-07-10T05:53:18.891Z,20.73
2018-07-10T05:56:21.009Z,20.71
2018-07-10T05:59:23.191Z,20.74
2018-07-10T06:02:26.424Z,20.89
2018-07-10T06:05:28.828Z,20.93
2018-07-10T06:08:31.028Z,20.87
2018-07-10T06:11:34.236Z,20.79
2018-07-10T06:14:36.391Z,20.74
2018-07-10T06:17:38.403Z,20.69
2018-07-10T06:20:41.182Z,20.66
2018-07-10T06:23:44.135Z,20.71
2018-07-10T06:26:51.691Z,20.73
2018-07-10T06:30:04.076Z,20.68
2018-07-10T06:33:27.722Z,20.49
2018-07-10T06:36:32.362Z,20.55
2018-07-10T06:39:34.640Z,20.63
2018-07-10T06:43:44.375Z,20.56
2018-07-10T06:46:53.981Z,20.58
2018-07-10T06:49:57.963Z,20.42
2018-07-10T06:53:01.053Z,20.28
2018-07-10T06:56:02.868Z,20.06
2018-07-10T06:59:04.929Z,19.91
2018-07-10T07:02:07.177Z,19.70
2018-07-10T07:05:09.391Z,19.53
2018-07-10T07:08:12.444Z,19.54
2018-07-10T07:11:14.632Z,19.41
2018-07-10T07:14:16.687Z,19.33
2018-07-10T07:17:18.856Z,19.25
2018-07-10T07:20:21.715Z,18.97
2018-07-10T07:23:23.734Z,18.57
2018-07-10T07:26:25.779Z,18.44
2018-07-10T07:29:28.931Z,18.26
2018-07-10T07:32:31.342Z,18.26
2018-07-10T07:35:33.557Z,18.42
2018-07-10T07:38:35.646Z,18.43
2018-07-10T07:41:38.071Z,18.61
2018-07-10T07:44:40.195Z,18.63
2018-07-10T07:47:42.753Z,18.77
2018-07-10T07:50:44.920Z,19.02
2018-07-10T07:53:47.139Z,19.26
2018-07-10T07:56:49.349Z,19.51
2018-07-10T07:59:51.468Z,19.51
2018-07-10T08:02:53.648Z,19.31
2018-07-10T08:05:56.872Z,19.01
2018-07-10T08:08:58.936Z,18.75
2018-07-10T08:12:01.422Z,18.43
2018-07-10T08:15:03.640Z,18.27
2018-07-10T08:18:05.722Z,18.18
2018-07-10T08:21:07.851Z,18.12
2018-07-10T08:24:10.039Z,18.20
2018-07-10T08:27:13.079Z,18.09
2018-07-10T08:30:15.250Z,18.00
2018-07-10T08:33:17.606Z,18.09
2018-07-10T08:36:19.621Z,17.98
2018-07-10T08:39:21.900Z,18.06
2018-07-10T08:42:24.154Z,18.23
2018-07-10T08:45:26.792Z,18.37
2018-07-10T08:48:29.184Z,18.57
2018-07-10T08:51:31.337Z,18.58
2018-07-10T08:54:33.482Z,18.36
2018-07-10T08:57:35.528Z,18.43
2018-07-10T09:00:37.725Z,18.28
2018-07-10T09:03:39.866Z,18.38
2018-07-10T09:06:44.254Z,18.64
2018-07-10T09:09:46.374Z,18.79
2018-07-10T09:12:48.468Z,18.71
2018-07-10T09:15:50.667Z,18.79
2018-07-10T09:18:52.739Z,18.75
2018-07-10T09:22:01.163Z,18.64
2018-07-10T09:25:04.533Z,18.45
2018-07-10T09:28:06.581Z,18.31
2018-07-10T09:31:08.724Z,18.28
2018-07-10T09:34:10.809Z,18.33
2018-07-10T09:37:18.527Z,18.47
2018-07-10T09:40:20.969Z,18.69
2018-07-10T09:43:24.541Z,18.69
2018-07-10T09:46:27.903Z,18.70
2018-07-10T09:49:30.434Z,18.98
2018-07-10T09:52:33.088Z,19.17
2018-07-10T09:55:35.217Z,19.31
2018-07-10T09:58:37.399Z,19.39
2018-07-10T10:01:39.621Z,19.38
2018-07-10T10:04:41.752Z,19.40
2018-07-10T10:07:45.159Z,19.62
2018-07-10T10:10:47.192Z,19.66
2018-07-10T10:13:49.634Z,20.12
2018-07-10T10:16:52.804Z,20.35
2018-07-10T10:19:56.419Z,20.44
2018-07-10T10:23:00.431Z,20.28
2018-07-10T10:26:02.704Z,20.43
2018-07-10T10:29:04.763Z,20.22
2018-07-10T10:32:07.953Z,20.27
2018-07-10T10:35:10.009Z,20.09
2018-07-10T10:38:12.257Z,20.00
2018-07-10T10:41:16.324Z,20.39
2018-07-10T10:44:18.480Z,20.54
2018-07-10T10:47:21.882Z,20.44
2018-07-10T10:50:23.957Z,20.43
2018-07-10T10:53:26.062Z,20.38
2018-07-10T10:56:28.260Z,20.29
2018-07-10T10:59:30.373Z,20.47
2018-07-10T11:02:32.498Z,20.67
2018-07-10T11:05:34.818Z,20.82
2018-07-10T11:08:37.015Z,20.81
2018-07-10T11:11:39.212Z,20.89
2018-07-10T11:14:44.415Z,20.93
2018-07-10T11:17:56.085Z,21.14
2018-07-10T11:21:22.805Z,21.13
2018-07-10T11:24:25.389Z,20.98
2018-07-10T11:27:33.957Z,21.26
2018-07-10T11:30:36.478Z,21.09
2018-07-10T11:33:38.614Z,21.35
2018-07-10T11:36:41.803Z,21.76
2018-07-10T11:39:44.596Z,22.10
2018-07-10T11:42:46.752Z,22.05
2018-07-10T11:45:48.954Z,21.76
2018-07-10T11:48:51.056Z,22.35
2018-07-10T11:51:54.440Z,22.74
2018-07-10T11:54:56.705Z,22.29
2018-07-10T11:57:59.306Z,22.23
2018-07-10T12:01:01.538Z,22.40
2018-07-10T12:04:04.077Z,22.44
2018-07-10T12:07:06.229Z,22.26
2018-07-10T12:10:19.718Z,21.73
2018-07-10T12:13:21.840Z,21.98
2018-07-10T12:16:23.936Z,22.13
2018-07-10T12:19:26.004Z,22.05
2018-07-10T12:22:28.188Z,21.95
2018-07-10T12:25:32.316Z,21.93
2018-07-10T12:28:34.463Z,22.16
2018-07-10T12:31:36.551Z,22.26
2018-07-10T12:34:39.677Z,22.33
2018-07-10T12:37:41.700Z,22.50
2018-07-10T12:40:44.365Z,22.39
2018-07-10T12:43:46.439Z,22.22
2018-07-10T12:46:48.644Z,22.36
2018-07-10T12:49:50.811Z,22.52
2018-07-10T12:52:52.981Z,22.49
2018-07-10T12:55:58.208Z,22.07
2018-07-10T12:59:00.298Z,22.29
2018-07-10T13:02:02.473Z,22.41
2018-07-10T13:05:05.764Z,22.96
2018-07-10T13:08:07.828Z,22.79
2018-07-10T13:11:10.000Z,22.68
2018-07-10T13:14:12.103Z,22.44
2018-07-10T13:17:15.541Z,22.40
2018-07-10T13:20:18.393Z,22.45
2018-07-10T13:23:20.592Z,22.78
2018-07-10T13:26:22.686Z,22.78
2018-07-10T13:29:24.728Z,22.62
2018-07-10T13:32:26.781Z,22.36
2018-07-10T13:35:30.247Z,22.30
2018-07-10T13:38:32.280Z,22.53
2018-07-10T13:41:34.788Z,22.48
2018-07-10T13:44:36.924Z,22.48
2018-07-10T13:47:39.060Z,22.82
2018-07-10T13:50:41.320Z,23.25
2018-07-10T13:53:43.999Z,23.31
2018-07-10T13:56:46.175Z,23.32
2018-07-10T13:59:48.635Z,23.17
2018-07-10T14:02:52.644Z,22.97
2018-07-10T14:05:55.012Z,22.70
2018-07-10T14:08:57.088Z,22.84
2018-07-10T14:11:59.313Z,22.55
2018-07-10T14:15:02.472Z,22.72
2018-07-10T14:18:05.028Z,22.67
2018-07-10T14:21:07.839Z,22.89
2018-07-10T14:24:10.011Z,23.10
2018-07-10T14:27:12.114Z,22.83
2018-07-10T14:30:14.730Z,23.17
2018-07-10T14:33:18.030Z,23.34
2018-07-10T14:36:20.132Z,23.42
2018-07-10T14:39:22.314Z,23.68
2018-07-10T14:42:24.569Z,23.68
2018-07-10T14:45:26.782Z,23.45
2018-07-10T14:48:32.144Z,23.22
2018-07-10T14:51:42.071Z,23.63
2018-07-10T14:54:45.192Z,23.47
2018-07-10T14:57:47.266Z,23.19
2018-07-10T15:00:49.803Z,23.33
2018-07-10T15:03:51.931Z,23.55
2018-07-10T15:06:54.048Z,23.52
2018-07-10T15:09:56.325Z,23.58
2018-07-10T15:12:58.445Z,23.62
2018-07-10T15:16:02.386Z,23.70
2018-07-10T15:19:04.427Z,23.63
2018-07-10T15:22:06.600Z,23.69
2018-07-10T15:25:08.634Z,23.52
2018-07-10T15:28:10.720Z,23.54
2018-07-10T15:31:12.954Z,23.52
2018-07-10T15:34:15.965Z,23.48
2018-07-10T15:37:18.625Z,23.50
2018-07-10T15:40:20.833Z,23.66
2018-07-10T15:43:23.859Z,23.62
2018-07-10T15:46:26.009Z,23.71
2018-07-10T15:49:28.251Z,24.02
2018-07-10T15:52:31.353Z,24.15
2018-07-10T15:55:33.371Z,23.79
2018-07-10T15:58:35.966Z,23.88
2018-07-10T16:01:38.015Z,23.74
2018-07-10T16:04:40.067Z,23.88
2018-07-10T16:07:42.306Z,23.96
2018-07-10T16:10:48.520Z,24.02
2018-07-10T16:13:50.616Z,23.74
2018-07-10T16:16:52.862Z,23.80
2018-07-10T16:20:06.205Z,23.89
2018-07-10T16:23:08.376Z,23.55
2018-07-10T16:26:15.912Z,23.25
2018-07-10T16:29:18.945Z,23.45
2018-07-10T16:32:21.021Z,23.28
2018-07-10T16:35:27.315Z,23.45
2018-07-10T16:38:29.780Z,23.41
2018-07-10T16:41:37.889Z,23.07
2018-07-10T16:44:41.943Z,23.10
2018-07-10T16:47:48.415Z,23.24
2018-07-10T16:51:09.147Z,23.33
2018-07-10T16:54:11.370Z,23.38
2018-07-10T16:57:13.560Z,23.50
2018-07-10T17:00:16.987Z,23.36
2018-07-10T17:03:19.095Z,23.32
2018-07-10T17:06:22.046Z,23.31
2018-07-10T17:09:24.148Z,23.45
2018-07-10T17:12:26.227Z,23.41
2018-07-10T17:15:28.443Z,23.22
2018-07-10T17:18:30.539Z,23.32
2018-07-10T17:21:33.804Z,23.48
2018-07-10T17:24:35.928Z,23.26
2018-07-10T17:27:38.557Z,23.35
2018-07-10T17:30:41.062Z,23.27
2018-07-10T17:33:43.349Z,23.28
2018-07-10T17:36:46.103Z,23.08
2018-07-10T17:39:48.803Z,22.87
2018-07-10T17:42:50.896Z,22.83
2018-07-10T17:45:52.963Z,22.77
2018-07-10T17:48:55.191Z,22.54
2018-07-10T17:51:57.285Z,22.55
2018-07-10T17:54:59.367Z,22.62
2018-07-10T17:58:02.394Z,22.58
2018-07-10T18:01:04.643Z,22.55
2018-07-10T18:04:07.227Z,22.60
2018-07-10T18:07:09.276Z,22.47
2018-07-10T18:10:11.514Z,22.53
2018-07-10T18:13:13.694Z,22.57
2018-07-10T18:16:16.805Z,22.59
2018-07-10T18:19:18.975Z,22.60
2018-07-10T18:22:21.069Z,22.44
2018-07-10T18:25:23.224Z,22.56
2018-07-10T18:28:25.417Z,22.53
2018-07-10T18:31:27.640Z,22.54
2018-07-10T18:34:29.819Z,22.29
2018-07-10T18:37:31.895Z,21.96
2018-07-10T18:40:34.156Z,21.85
2018-07-10T18:43:36.279Z,21.96
2018-07-10T18:46:38.256Z,21.98
2018-07-10T18:49:40.631Z,21.98
2018-07-10T18:52:42.824Z,21.94
2018-07-10T18:55:44.963Z,21.97
2018-07-10T18:58:57.056Z,21.80
2018-07-10T19:02:03.560Z,21.71
2018-07-10T19:05:07.145Z,21.63
2018-07-10T19:08:09.283Z,21.54
2018-07-10T19:11:14.342Z,21.63
2018-07-10T19:14:17.511Z,21.69
2018-07-10T19:17:25.240Z,21.70
2018-07-10T19:20:29.339Z,21.80
2018-07-10T19:23:37.287Z,21.74
2018-07-10T19:26:39.336Z,21.65
2018-07-10T19:29:49.711Z,21.65
2018-07-10T19:32:51.886Z,21.62
2018-07-10T19:35:54.066Z,21.69
2018-07-10T19:38:56.212Z,21.66
2018-07-10T19:41:58.311Z,21.58
2018-07-10T19:45:01.518Z,21.47
2018-07-10T19:48:03.792Z,21.46
2018-07-10T19:51:08.067Z,21.43
2018-07-10T19:54:12.123Z,21.29
2018-07-10T19:57:22.992Z,21.28
2018-07-10T20:00:26.706Z,21.26
2018-07-10T20:03:53.713Z,21.23
2018-07-10T20:07:10.632Z,21.06
2018-07-10T20:10:22.963Z,20.88
2018-07-10T20:13:35.764Z,20.69
2018-07-10T20:16:43.785Z,20.81
2018-07-10T20:19:49.662Z,20.91
2018-07-10T20:23:09.120Z,20.92
2018-07-10T20:26:53.963Z,20.92
2018-07-10T20:30:36.411Z,20.74
2018-07-10T20:35:15.523Z,20.58
2018-07-10T20:38:18.275Z,20.45
2018-07-10T20:41:20.710Z,20.32
2018-07-10T20:44:22.884Z,20.27
2018-07-10T20:47:27.941Z,20.11
2018-07-10T20:50:45.610Z,20.08
2018-07-10T20:53:55.480Z,19.96
2018-07-10T20:57:02.000Z,19.93
2018-07-10T21:00:09.572Z,19.82
2018-07-10T21:03:22.231Z,19.71
2018-07-10T21:06:35.650Z,19.73
2018-07-10T21:09:51.885Z,19.75
2018-07-10T21:13:01.675Z,19.68
2018-07-10T21:16:08.846Z,19.77
2018-07-10T21:19:23.968Z,19.77
2018-07-10T21:23:37.396Z,19.62
2018-07-10T21:26:46.413Z,19.49
2018-07-10T21:29:56.259Z,19.46
2018-07-10T21:33:02.861Z,19.41
2018-07-10T21:36:06.431Z,19.35
2018-07-10T21:39:19.930Z,19.32
2018-07-10T21:42:38.951Z,19.34
2018-07-10T21:45:51.381Z,19.37
2018-07-10T21:49:58.957Z,19.32
2018-07-10T21:53:01.723Z,19.26
2018-07-10T21:56:04.039Z,19.31
2018-07-10T21:59:06.177Z,19.38
2018-07-10T22:02:09.172Z,19.43
2018-07-10T22:05:11.348Z,19.40
2018-07-10T22:08:14.499Z,19.31
2018-07-10T22:11:16.771Z,19.37
2018-07-10T22:14:19.179Z,19.34
2018-07-10T22:17:22.639Z,19.36
2018-07-10T22:20:24.828Z,19.39
2018-07-10T22:23:26.975Z,19.43
2018-07-10T22:26:29.300Z,19.35
2018-07-10T22:29:38.396Z,19.37
2018-07-10T22:32:46.400Z,19.40
2018-07-10T22:35:48.508Z,19.46
2018-07-10T22:38:51.300Z,19.43
2018-07-10T22:41:53.991Z,19.33
2018-07-10T22:44:57.831Z,19.37
2018-07-10T22:48:00.713Z,19.31
2018-07-10T22:51:03.180Z,19.35
2018-07-10T22:54:05.756Z,19.34
2018-07-10T22:57:09.162Z,19.30
2018-07-10T23:00:34.767Z,19.23
2018-07-10T23:03:36.968Z,19.24
2018-07-10T23:06:39.068Z,19.14
2018-07-10T23:09:41.140Z,19.11
2018-07-10T23:12:43.148Z,18.99
2018-07-10T23:15:46.036Z,18.93
2018-07-10T23:18:48.096Z,18.94
2018-07-10T23:21:50.260Z,18.93
2018-07-10T23:24:52.291Z,18.97
2018-07-10T23:27:59.982Z,18.99
2018-07-10T23:31:03.392Z,18.95
2018-07-10T23:34:10.088Z,18.89
2018-07-10T23:37:12.199Z,18.86
2018-07-10T23:40:14.344Z,18.89
2018-07-10T23:43:16.934Z,18.81
2018-07-10T23:46:30.380Z,18.79
2018-07-10T23:49:32.556Z,18.75
2018-07-10T23:53:45.300Z,18.75
2018-07-10T23:56:47.436Z,18.67
2018-07-10T23:59:49.477Z,18.70
